CheckWX is a tool to help pilots better visualize weather data.  It is not intended as a substitute for an official pre-flight weather briefing.

14:30:22 UTC

CYZE TAF
Gore Bay Manitoulin Airport
Gore Bay, Canada
TAF CYZE 250938Z 2510/2522 17012G22KT P6SM BKN100 TEMPO 2519/2522 P6SM -SHRA RMK FCST BASED ON AUTO OBS. NXT FCST BY 251400Z

Apr-25@
10:00 UTC

Apr-25 @ 10:00 UTC

Apr-25@
22:00 UTC

Apr-25 @ 22:00 UTC

TAF CYZE 250938Z 2510/2522 17012G22KT P6SM BKN100
Wind
  • 170° at 12 KTS
  • {Gusting to 22 KTS
Cloud Levels
  • Broken at 10,000' AGL

Apr-25@
19:00 UTC

Apr-25 @ 19:00 UTC

Apr-25@
22:00 UTC

Apr-25 @ 22:00 UTC

TEMPO 2519/2522 P6SM -SHRA RMK FCST BASED ON AUTO OBS. NXT FCST BY 251400Z

Temporary

Temporary Changes expected for less than half the time period

Conditions
Light Rain